Time;durP1;ratioP1;P1;durP2;ratioP2;P2;SDS_P1;SDS_P2;PMS_P1;PMS_P2;Temp;Humidity;BMP_temperature;BMP_pressure;BME280_temperature;BME280_humidity;BME280_pressure;Samples;Min_cycle;Max_cycle;Signal;HPM_P1;HPM_P2
2023/09/03 00:01:00;;;;;;;0.00;0.00;;;18.40;99.90;;;;;;5052393;28;20173;-61
2023/09/03 00:03:25;;;;;;;0.00;0.00;;;18.40;99.90;;;;;;5052987;28;20629;-61
2023/09/03 00:05:56;;;;;;;0.00;0.00;;;18.40;99.90;;;;;;5052790;28;20268;-61
2023/09/03 00:08:22;;;;;;;0.00;0.00;;;18.40;99.90;;;;;;5052924;28;20645;-61
2023/09/03 00:10:52;;;;;;;0.00;0.00;;;18.40;99.90;;;;;;5052999;28;20191;-61
2023/09/03 00:13:18;;;;;;;0.00;0.00;;;18.40;99.90;;;;;;5052300;28;20232;-62
2023/09/03 00:15:44;;;;;;;0.00;0.00;;;18.40;99.90;;;;;;5052450;28;20221;-62
2023/09/03 00:18:14;;;;;;;0.00;0.00;;;18.40;99.90;;;;;;5052290;28;20182;-62
2023/09/03 00:20:40;;;;;;;0.00;0.00;;;18.30;99.90;;;;;;5052613;28;20184;-62
2023/09/03 00:23:06;;;;;;;0.00;0.00;;;18.30;99.90;;;;;;5052576;28;20185;-61
2023/09/03 00:25:36;;;;;;;0.00;0.00;;;18.30;99.90;;;;;;5050915;28;20633;-61
2023/09/03 00:28:02;;;;;;;0.00;0.00;;;18.30;99.90;;;;;;5052234;28;20637;-61
2023/09/03 00:30:27;;;;;;;0.00;0.00;;;18.30;99.90;;;;;;5052152;28;20305;-61
2023/09/03 00:32:53;;;;;;;0.20;0.20;;;18.20;99.90;;;;;;5052138;28;20618;-61
2023/09/03 00:35:18;;;;;;;0.00;0.00;;;18.20;99.90;;;;;;5052065;28;20624;-61
2023/09/03 00:37:44;;;;;;;0.00;0.00;;;18.10;99.90;;;;;;5052020;28;20182;-61
2023/09/03 00:40:10;;;;;;;0.00;0.00;;;18.10;99.90;;;;;;5052146;28;20181;-61
2023/09/03 00:42:35;;;;;;;0.00;0.00;;;18.10;99.90;;;;;;5052146;28;20264;-61
2023/09/03 00:45:01;;;;;;;0.00;0.00;;;18.10;99.90;;;;;;5051734;28;20268;-61
2023/09/03 00:47:26;;;;;;;0.00;0.00;;;18.10;99.90;;;;;;5052148;28;20185;-61
2023/09/03 00:49:52;;;;;;;0.00;0.00;;;18.10;99.90;;;;;;5051739;28;20263;-61
2023/09/03 00:52:19;;;;;;;0.00;0.00;;;18.00;99.90;;;;;;5039436;28;20236;-61
2023/09/03 00:54:45;;;;;;;0.00;0.00;;;18.00;99.90;;;;;;5051996;28;20295;-61
2023/09/03 00:57:11;;;;;;;0.00;0.00;;;18.00;99.90;;;;;;5051921;28;20823;-61
2023/09/03 00:59:37;;;;;;;0.00;0.00;;;17.90;99.90;;;;;;5051543;28;20194;-61
2023/09/03 01:02:03;;;;;;;0.00;0.00;;;17.90;99.90;;;;;;5051654;28;20213;-61
2023/09/03 01:04:29;;;;;;;0.00;0.00;;;17.90;99.90;;;;;;5051858;28;20212;-61
2023/09/03 01:06:55;;;;;;;0.00;0.00;;;17.90;99.90;;;;;;5051607;28;20178;-61
2023/09/03 01:09:20;;;;;;;0.00;0.00;;;17.90;99.90;;;;;;5051844;28;20174;-61
2023/09/03 01:11:57;;;;;;;0.00;0.00;;;17.90;99.90;;;;;;5050942;28;20209;-62
2023/09/03 01:15:03;;;;;;;0.00;0.00;;;17.90;99.90;;;;;;5051258;28;20233;-61
2023/09/03 01:17:39;;;;;;;0.00;0.00;;;17.90;99.90;;;;;;5051689;28;20189;-62
2023/09/03 01:20:13;;;;;;;0.43;0.43;;;17.90;99.90;;;;;;5051353;28;20568;-61
2023/09/03 01:23:05;;;;;;;0.00;0.00;;;17.90;99.90;;;;;;5051330;28;20191;-61
2023/09/03 01:25:56;;;;;;;0.00;0.00;;;17.90;99.90;;;;;;5051269;28;20177;-61
2023/09/03 01:28:52;;;;;;;0.00;0.00;;;17.90;99.90;;;;;;5051141;28;20536;-61
2023/09/03 01:31:19;;;;;;;0.00;0.00;;;17.90;99.90;;;;;;5049932;28;20337;-61
2023/09/03 01:33:46;;;;;;;0.00;0.00;;;17.90;99.90;;;;;;5051295;28;20335;-61
2023/09/03 01:36:13;;;;;;;0.00;0.00;;;17.80;99.90;;;;;;5050692;28;20343;-61
2023/09/03 01:38:39;;;;;;;0.00;0.00;;;17.80;99.90;;;;;;5050912;28;20621;-61
2023/09/03 01:41:05;;;;;;;0.00;0.00;;;17.80;99.90;;;;;;5050752;28;20182;-62
2023/09/03 01:43:31;;;;;;;0.00;0.00;;;17.80;99.90;;;;;;5050695;28;20209;-61
2023/09/03 01:46:12;;;;;;;0.00;0.00;;;17.80;99.90;;;;;;5050981;28;20189;-61
2023/09/03 01:49:10;;;;;;;0.00;0.00;;;17.80;99.90;;;;;;5035583;28;20223;-62
2023/09/03 01:52:12;;;;;;;0.00;0.00;;;17.70;99.90;;;;;;5049137;28;20193;-62
2023/09/03 01:54:40;;;;;;;0.00;0.00;;;17.60;99.90;;;;;;5034177;28;20217;-61
2023/09/03 01:57:29;;;;;;;0.00;0.00;;;17.60;99.90;;;;;;5050734;28;20173;-61
2023/09/03 01:59:58;;;;;;;0.00;0.00;;;17.60;99.90;;;;;;5049543;28;20188;-61
2023/09/03 02:02:25;;;;;;;0.00;0.00;;;17.50;99.90;;;;;;5050669;28;20267;-62
2023/09/03 02:04:51;;;;;;;0.00;0.00;;;17.50;99.90;;;;;;5046097;28;20181;-61
2023/09/03 02:07:17;;;;;;;0.00;0.00;;;17.50;99.90;;;;;;5050634;28;20658;-61
2023/09/03 02:09:42;;;;;;;0.00;0.00;;;17.50;99.90;;;;;;5050829;28;20186;-61
2023/09/03 02:12:09;;;;;;;0.00;0.00;;;17.40;99.90;;;;;;5050771;28;20268;-61
2023/09/03 02:14:35;;;;;;;0.00;0.00;;;17.40;99.90;;;;;;5050222;28;20217;-61
2023/09/03 02:17:00;;;;;;;0.00;0.00;;;17.40;99.90;;;;;;5050851;28;20514;-61
2023/09/03 02:19:26;;;;;;;0.00;0.00;;;17.40;99.90;;;;;;5050522;28;20189;-61
2023/09/03 02:21:51;;;;;;;0.00;0.00;;;17.40;99.90;;;;;;5050639;28;20178;-61
2023/09/03 02:24:17;;;;;;;0.00;0.00;;;17.30;99.90;;;;;;5050343;28;20280;-61
2023/09/03 02:26:44;;;;;;;0.00;0.00;;;17.30;99.90;;;;;;5050306;28;20276;-61
2023/09/03 02:29:11;;;;;;;0.00;0.00;;;17.30;99.90;;;;;;5050213;28;20174;-61
2023/09/03 02:31:36;;;;;;;0.00;0.00;;;17.30;99.90;;;;;;5050239;28;20229;-61
2023/09/03 02:34:03;;;;;;;0.00;0.00;;;17.30;99.90;;;;;;5050459;28;20692;-61
2023/09/03 02:36:30;;;;;;;0.00;0.00;;;17.20;99.90;;;;;;5050549;28;20189;-61
2023/09/03 02:39:05;;;;;;;0.00;0.00;;;17.20;99.90;;;;;;5050275;28;20189;-61
2023/09/03 02:41:31;;;;;;;0.00;0.00;;;17.20;99.90;;;;;;5048893;28;20185;-61
2023/09/03 02:43:57;;;;;;;0.00;0.00;;;17.20;99.90;;;;;;5049810;28;20234;-61
2023/09/03 02:46:23;;;;;;;0.00;0.00;;;17.20;99.90;;;;;;5050182;28;20230;-61
2023/09/03 02:48:49;;;;;;;0.00;0.00;;;17.10;99.90;;;;;;5049877;28;20597;-61
2023/09/03 02:51:15;;;;;;;0.00;0.00;;;17.20;99.90;;;;;;5049884;28;20169;-61
2023/09/03 02:53:42;;;;;;;0.00;0.00;;;17.20;99.90;;;;;;5059546;28;20518;-61
2023/09/03 02:56:08;;;;;;;0.00;0.00;;;17.20;99.90;;;;;;5050105;28;20209;-62
2023/09/03 02:58:33;;;;;;;0.00;0.00;;;17.20;99.90;;;;;;5049605;28;20210;-61
2023/09/03 03:01:07;;;;;;;0.00;0.00;;;17.20;99.90;;;;;;5050009;28;20269;-61
2023/09/03 03:03:32;;;;;;;0.00;0.00;;;17.20;99.90;;;;;;5050055;28;20174;-61
2023/09/03 03:05:58;;;;;;;0.10;0.00;;;17.10;99.90;;;;;;5049947;28;20185;-61
2023/09/03 03:08:24;;;;;;;0.00;0.00;;;17.10;99.90;;;;;;5050188;28;20268;-61
2023/09/03 03:10:50;;;;;;;0.00;0.00;;;17.00;99.90;;;;;;5049637;28;20189;-61
2023/09/03 03:13:16;;;;;;;0.00;0.00;;;17.00;99.90;;;;;;5049907;28;20228;-62
2023/09/03 03:15:41;;;;;;;0.00;0.00;;;17.00;99.90;;;;;;5050047;28;20217;-61
2023/09/03 03:18:07;;;;;;;0.10;0.10;;;16.90;99.90;;;;;;5048832;28;20188;-61
2023/09/03 03:20:32;;;;;;;0.00;0.00;;;16.90;99.90;;;;;;5050032;28;20212;-62
2023/09/03 03:22:58;;;;;;;0.00;0.00;;;16.80;99.90;;;;;;5049912;28;20186;-62
2023/09/03 03:25:23;;;;;;;0.00;0.00;;;16.80;99.90;;;;;;5050191;28;20195;-61
2023/09/03 03:27:49;;;;;;;0.00;0.00;;;16.80;99.90;;;;;;5049972;28;20239;-62
2023/09/03 03:30:15;;;;;;;0.00;0.00;;;16.80;99.90;;;;;;5049661;28;20236;-61
2023/09/03 03:32:40;;;;;;;0.00;0.00;;;16.80;99.90;;;;;;5048812;28;20188;-61
2023/09/03 03:35:06;;;;;;;0.00;0.00;;;16.80;99.90;;;;;;5051230;28;20868;-61
2023/09/03 03:37:31;;;;;;;0.00;0.00;;;16.80;99.90;;;;;;5053803;28;20189;-61
2023/09/03 03:39:57;;;;;;;0.00;0.00;;;16.80;99.90;;;;;;5053207;28;20652;-61
2023/09/03 03:42:22;;;;;;;0.00;0.00;;;16.80;99.90;;;;;;5052338;28;20177;-61
2023/09/03 03:44:48;;;;;;;0.00;0.00;;;16.90;99.90;;;;;;5052972;28;20226;-61
2023/09/03 03:47:13;;;;;;;0.00;0.00;;;16.90;99.90;;;;;;5052613;28;20554;-61
2023/09/03 03:49:39;;;;;;;0.00;0.00;;;16.90;99.90;;;;;;5053025;28;20205;-61
2023/09/03 03:52:05;;;;;;;0.00;0.00;;;16.90;99.90;;;;;;5058843;28;20180;-61
2023/09/03 03:54:31;;;;;;;0.00;0.00;;;16.90;99.90;;;;;;5054415;28;20222;-61
2023/09/03 03:56:56;;;;;;;0.00;0.00;;;16.90;99.90;;;;;;5052686;28;20643;-61
2023/09/03 03:59:22;;;;;;;0.00;0.00;;;17.00;99.90;;;;;;5052513;28;20174;-62
2023/09/03 04:01:48;;;;;;;0.10;0.10;;;17.00;99.90;;;;;;5053269;28;20186;-61
2023/09/03 04:04:14;;;;;;;0.00;0.00;;;17.00;99.90;;;;;;5053061;28;20193;-61
2023/09/03 04:06:39;;;;;;;0.00;0.00;;;17.00;99.90;;;;;;5051668;28;20636;-61
2023/09/03 04:09:05;;;;;;;0.00;0.00;;;16.90;99.90;;;;;;5052200;28;20546;-61
2023/09/03 04:11:30;;;;;;;0.03;0.03;;;16.90;99.90;;;;;;5052771;28;20181;-61
2023/09/03 04:13:56;;;;;;;0.00;0.00;;;16.90;99.90;;;;;;5052757;28;20184;-61
2023/09/03 04:16:22;;;;;;;0.00;0.00;;;16.80;99.90;;;;;;5052825;28;20186;-62
2023/09/03 04:18:50;;;;;;;0.00;0.00;;;16.80;99.90;;;;;;5052904;28;20586;-62
2023/09/03 04:21:16;;;;;;;0.00;0.00;;;16.80;99.90;;;;;;5052833;28;20178;-61
2023/09/03 04:23:42;;;;;;;0.00;0.00;;;16.80;99.90;;;;;;5052417;28;20188;-62
2023/09/03 04:26:09;;;;;;;0.00;0.00;;;16.80;99.90;;;;;;5052744;28;20675;-61
2023/09/03 04:28:34;;;;;;;0.00;0.00;;;16.70;99.90;;;;;;5052568;28;20216;-61
2023/09/03 04:31:04;;;;;;;0.00;0.00;;;16.70;99.90;;;;;;5052268;28;20248;-61
2023/09/03 04:33:29;;;;;;;0.00;0.00;;;16.70;99.90;;;;;;5051733;28;20203;-61
2023/09/03 04:35:57;;;;;;;0.00;0.00;;;16.70;99.90;;;;;;5052464;28;20709;-62
2023/09/03 04:38:24;;;;;;;0.00;0.00;;;16.70;99.90;;;;;;5051958;28;20657;-61
2023/09/03 04:40:50;;;;;;;0.00;0.00;;;16.70;99.90;;;;;;5052380;28;20181;-61
2023/09/03 04:43:15;;;;;;;0.00;0.00;;;16.70;99.90;;;;;;5052141;28;20701;-61
2023/09/03 04:45:52;;;;;;;0.00;0.00;;;16.70;99.90;;;;;;5051109;28;20189;-61
2023/09/03 04:48:19;;;;;;;0.00;0.00;;;16.70;99.90;;;;;;5051307;28;20207;-61
2023/09/03 04:50:45;;;;;;;0.00;0.00;;;16.80;99.90;;;;;;5051765;28;20188;-61
2023/09/03 04:53:12;;;;;;;0.00;0.00;;;16.70;99.90;;;;;;5051976;28;20189;-61
2023/09/03 04:55:38;;;;;;;0.00;0.00;;;16.70;99.90;;;;;;5051667;28;20213;-61
2023/09/03 04:58:04;;;;;;;0.00;0.00;;;16.80;99.90;;;;;;5052045;28;20272;-61
2023/09/03 05:00:30;;;;;;;0.00;0.00;;;16.70;99.90;;;;;;5052039;28;20189;-61
2023/09/03 05:02:55;;;;;;;0.00;0.00;;;16.80;99.90;;;;;;5051917;28;20178;-61
2023/09/03 05:05:21;;;;;;;0.00;0.00;;;16.80;99.90;;;;;;5051649;28;20257;-61
2023/09/03 05:07:47;;;;;;;0.00;0.00;;;16.80;99.90;;;;;;5051850;28;20191;-61
2023/09/03 05:10:13;;;;;;;0.00;0.00;;;16.80;99.90;;;;;;5051840;28;20268;-61
2023/09/03 05:12:42;;;;;;;0.00;0.00;;;16.80;99.90;;;;;;5052031;28;20216;-61
2023/09/03 05:15:11;;;;;;;0.00;0.00;;;16.80;99.90;;;;;;5051413;28;20206;-61
2023/09/03 05:17:38;;;;;;;0.00;0.00;;;16.80;99.90;;;;;;5051286;28;20186;-61
2023/09/03 05:20:04;;;;;;;0.00;0.00;;;16.80;99.90;;;;;;5051524;28;20205;-61
2023/09/03 05:22:30;;;;;;;0.00;0.00;;;16.80;99.90;;;;;;5051631;28;20522;-61
2023/09/03 05:24:55;;;;;;;0.00;0.00;;;16.90;99.90;;;;;;5051393;28;20169;-61
2023/09/03 05:27:21;;;;;;;0.00;0.00;;;16.90;99.90;;;;;;5051221;28;20185;-61
2023/09/03 05:29:47;;;;;;;0.00;0.00;;;17.00;99.90;;;;;;5050637;28;20178;-61
2023/09/03 05:32:13;;;;;;;0.00;0.00;;;17.00;99.90;;;;;;5051360;28;20273;-61
2023/09/03 05:34:39;;;;;;;0.00;0.00;;;17.10;99.90;;;;;;5051090;28;20299;-61
2023/09/03 05:37:04;;;;;;;0.00;0.00;;;17.20;99.90;;;;;;5051345;28;20649;-61
2023/09/03 05:39:31;;;;;;;0.00;0.00;;;17.20;99.90;;;;;;5051332;28;20196;-61
2023/09/03 05:41:56;;;;;;;0.00;0.00;;;17.30;99.90;;;;;;5050896;28;20180;-61
2023/09/03 05:44:22;;;;;;;0.00;0.00;;;17.30;99.90;;;;;;5049926;28;20181;-61
2023/09/03 05:46:47;;;;;;;0.00;0.00;;;17.40;99.90;;;;;;5049576;28;20244;-61
2023/09/03 05:49:13;;;;;;;0.00;0.00;;;17.50;99.90;;;;;;5051201;28;20174;-61
2023/09/03 05:51:40;;;;;;;0.00;0.00;;;17.50;99.90;;;;;;5050784;28;20231;-61
2023/09/03 05:54:06;;;;;;;0.00;0.00;;;17.60;99.90;;;;;;5035121;28;20185;-61
2023/09/03 05:56:34;;;;;;;0.00;0.00;;;17.60;99.90;;;;;;5050952;28;20577;-62
2023/09/03 05:59:05;;;;;;;0.00;0.00;;;17.70;99.90;;;;;;5050855;28;20209;-61
2023/09/03 06:01:30;;;;;;;0.00;0.00;;;17.90;99.90;;;;;;5050985;28;20185;-61
2023/09/03 06:03:56;;;;;;;0.00;0.00;;;18.00;99.90;;;;;;5050677;28;20181;-61
2023/09/03 06:06:22;;;;;;;0.00;0.00;;;18.10;99.90;;;;;;5050430;28;20265;-61
2023/09/03 06:08:48;;;;;;;0.00;0.00;;;18.30;99.90;;;;;;5050828;28;20379;-61
2023/09/03 06:11:13;;;;;;;0.00;0.00;;;18.40;99.90;;;;;;5050980;28;20219;-61
2023/09/03 06:13:39;;;;;;;0.00;0.00;;;18.50;99.90;;;;;;5050931;28;20185;-62
2023/09/03 06:16:04;;;;;;;0.00;0.00;;;18.60;99.90;;;;;;5050612;28;20263;-61
2023/09/03 06:18:30;;;;;;;0.00;0.00;;;18.70;99.90;;;;;;5050876;28;20684;-62
2023/09/03 06:20:56;;;;;;;0.00;0.00;;;18.80;99.90;;;;;;5050545;28;20216;-62
2023/09/03 06:23:21;;;;;;;0.00;0.00;;;19.00;99.90;;;;;;5050697;28;20219;-62
2023/09/03 06:25:48;;;;;;;0.00;0.00;;;19.10;99.90;;;;;;5050203;28;20747;-62
2023/09/03 06:28:15;;;;;;;0.00;0.00;;;19.30;99.90;;;;;;5050270;28;20170;-61
2023/09/03 06:30:41;;;;;;;0.00;0.00;;;19.30;99.90;;;;;;5050751;28;21307;-61
2023/09/03 06:33:07;;;;;;;0.00;0.00;;;19.40;99.90;;;;;;5050888;28;20633;-61
2023/09/03 06:35:33;;;;;;;0.00;0.00;;;19.50;99.90;;;;;;5050600;28;20221;-62
2023/09/03 06:37:59;;;;;;;0.00;0.00;;;19.60;99.90;;;;;;5050221;28;20563;-63
2023/09/03 06:40:25;;;;;;;0.00;0.00;;;19.70;99.90;;;;;;5049499;28;20207;-62
2023/09/03 06:42:51;;;;;;;0.00;0.00;;;19.70;99.90;;;;;;5050852;28;20256;-62
2023/09/03 06:45:17;;;;;;;0.00;0.00;;;19.80;99.90;;;;;;5050375;28;20191;-62
2023/09/03 06:47:43;;;;;;;0.00;0.00;;;19.90;99.90;;;;;;5050624;28;20583;-62
2023/09/03 06:50:09;;;;;;;0.00;0.00;;;20.10;99.90;;;;;;5050264;28;20185;-63
2023/09/03 06:52:35;;;;;;;0.00;0.00;;;20.20;99.90;;;;;;5050103;28;20181;-62
2023/09/03 06:55:01;;;;;;;0.00;0.00;;;20.40;99.90;;;;;;5050065;28;20240;-61
2023/09/03 06:57:27;;;;;;;0.00;0.00;;;20.40;99.90;;;;;;5050600;28;20256;-63
2023/09/03 06:59:52;;;;;;;0.00;0.00;;;20.60;99.90;;;;;;5050293;28;20273;-61
2023/09/03 07:02:18;;;;;;;0.00;0.00;;;20.70;99.90;;;;;;5049608;28;20247;-62
2023/09/03 07:04:43;;;;;;;0.80;0.10;;;20.90;99.90;;;;;;5050364;28;20174;-63
2023/09/03 07:07:09;;;;;;;0.00;0.00;;;21.10;99.90;;;;;;5050280;28;20268;-62
2023/09/03 07:09:35;;;;;;;0.00;0.00;;;21.30;99.90;;;;;;5050878;28;20185;-62
2023/09/03 07:12:01;;;;;;;0.00;0.00;;;21.40;99.90;;;;;;5053141;28;20265;-62
2023/09/03 07:14:26;;;;;;;0.00;0.00;;;21.50;99.90;;;;;;5053836;28;20785;-63
2023/09/03 07:16:52;;;;;;;0.00;0.00;;;21.70;99.90;;;;;;5054318;28;20173;-64
2023/09/03 07:19:18;;;;;;;0.00;0.00;;;21.80;99.90;;;;;;5053897;28;20181;-63
2023/09/03 07:21:43;;;;;;;0.00;0.00;;;21.90;99.90;;;;;;5054098;28;20180;-68
2023/09/03 07:24:09;;;;;;;0.00;0.00;;;22.10;99.90;;;;;;5052897;28;20181;-64
2023/09/03 07:26:34;;;;;;;0.00;0.00;;;22.30;99.90;;;;;;5053696;28;20535;-63
2023/09/03 07:29:00;;;;;;;0.00;0.00;;;22.50;99.90;;;;;;5053251;28;20246;-63
2023/09/03 07:31:25;;;;;;;0.00;0.00;;;22.70;99.90;;;;;;5053516;28;20322;-62
2023/09/03 07:33:51;;;;;;;0.00;0.00;;;23.00;99.90;;;;;;5053640;28;20176;-62
2023/09/03 07:36:16;;;;;;;0.00;0.00;;;23.50;99.90;;;;;;5053791;28;20945;-62
2023/09/03 07:38:42;;;;;;;0.00;0.00;;;23.90;99.90;;;;;;5053988;28;20178;-63
2023/09/03 07:41:07;;;;;;;0.00;0.00;;;24.30;99.90;;;;;;5053795;28;20174;-62
2023/09/03 07:43:34;;;;;;;0.00;0.00;;;24.60;99.90;;;;;;5053928;28;20189;-62
2023/09/03 07:46:00;;;;;;;0.00;0.00;;;24.90;99.90;;;;;;5062390;28;20166;-62
2023/09/03 07:48:25;;;;;;;0.00;0.00;;;25.10;99.90;;;;;;5052882;28;20276;-63
2023/09/03 07:50:52;;;;;;;0.00;0.00;;;25.30;99.90;;;;;;5052194;28;20209;-63
2023/09/03 07:53:17;;;;;;;0.00;0.00;;;25.30;99.90;;;;;;5053125;28;20836;-62
2023/09/03 07:55:44;;;;;;;0.00;0.00;;;25.40;99.90;;;;;;5051124;28;20213;-62
2023/09/03 07:58:10;;;;;;;0.00;0.00;;;25.60;99.90;;;;;;5053455;28;20169;-63
2023/09/03 08:00:35;;;;;;;0.00;0.00;;;25.80;99.90;;;;;;5053315;28;20651;-63
2023/09/03 08:03:01;;;;;;;0.00;0.00;;;26.00;99.90;;;;;;5052060;28;20177;-63
2023/09/03 08:05:27;;;;;;;0.00;0.00;;;26.20;99.90;;;;;;5052646;28;20211;-62
2023/09/03 08:07:52;;;;;;;0.00;0.00;;;26.50;99.90;;;;;;5053555;28;20248;-63
2023/09/03 08:10:18;;;;;;;0.00;0.00;;;26.90;99.90;;;;;;5052951;28;20565;-62
2023/09/03 08:12:44;;;;;;;0.00;0.00;;;27.40;99.90;;;;;;5053168;28;20181;-63
2023/09/03 08:15:10;;;;;;;0.00;0.00;;;27.90;99.90;;;;;;5053117;28;20217;-62
2023/09/03 08:17:36;;;;;;;0.00;0.00;;;28.50;99.10;;;;;;5052845;28;20177;-63
2023/09/03 08:20:03;;;;;;;0.00;0.00;;;29.00;97.80;;;;;;5052879;28;20307;-63
2023/09/03 08:22:29;;;;;;;0.00;0.00;;;29.20;97.00;;;;;;5052792;28;20188;-64
2023/09/03 08:24:54;;;;;;;0.00;0.00;;;29.40;96.60;;;;;;5052447;28;20181;-63
2023/09/03 08:27:20;;;;;;;0.00;0.00;;;29.40;96.10;;;;;;5052354;28;20170;-62
2023/09/03 08:29:45;;;;;;;0.00;0.00;;;29.40;95.60;;;;;;5052703;28;20182;-61
2023/09/03 08:32:11;;;;;;;0.00;0.00;;;29.60;95.70;;;;;;5052680;28;20257;-61
2023/09/03 08:34:37;;;;;;;0.00;0.00;;;29.70;95.30;;;;;;5056187;28;20305;-61
2023/09/03 08:37:02;;;;;;;0.00;0.00;;;29.80;94.80;;;;;;5052124;28;20272;-61
2023/09/03 08:39:28;;;;;;;0.00;0.00;;;29.90;95.40;;;;;;5052312;28;20184;-60
2023/09/03 08:41:55;;;;;;;0.00;0.00;;;30.00;94.20;;;;;;5055658;28;20193;-61
2023/09/03 08:44:36;;;;;;;0.00;0.00;;;30.10;92.80;;;;;;5072673;28;20189;-60
2023/09/03 08:47:03;;;;;;;0.00;0.00;;;30.00;92.90;;;;;;5052753;28;20173;-60
2023/09/03 08:49:31;;;;;;;0.00;0.00;;;30.00;93.20;;;;;;5051136;28;20582;-60
2023/09/03 08:51:59;;;;;;;0.00;0.00;;;30.10;93.00;;;;;;5052164;28;20192;-60
2023/09/03 08:54:26;;;;;;;0.00;0.00;;;30.20;92.60;;;;;;5052186;28;20197;-61
2023/09/03 08:56:52;;;;;;;0.00;0.00;;;30.10;92.40;;;;;;5052287;28;20645;-60
2023/09/03 08:59:17;;;;;;;0.00;0.00;;;29.90;92.40;;;;;;5052170;28;20173;-60
2023/09/03 09:01:45;;;;;;;0.00;0.00;;;29.80;92.40;;;;;;5051440;28;20169;-60
2023/09/03 09:04:12;;;;;;;0.00;0.00;;;29.60;92.10;;;;;;5051919;28;20257;-60
2023/09/03 09:06:43;;;;;;;0.00;0.00;;;29.30;92.20;;;;;;5051664;28;20268;-59
2023/09/03 09:09:09;;;;;;;0.00;0.00;;;29.10;92.30;;;;;;5050208;28;20230;-58
2023/09/03 09:11:39;;;;;;;0.00;0.00;;;28.70;92.90;;;;;;5051325;28;20181;-59
2023/09/03 09:14:11;;;;;;;0.00;0.00;;;28.50;93.10;;;;;;5050805;28;20177;-60
2023/09/03 09:16:36;;;;;;;0.75;0.43;;;28.30;93.50;;;;;;5044826;28;20219;-59
2023/09/03 09:19:02;;;;;;;0.00;0.00;;;28.20;94.00;;;;;;5047770;28;20268;-61
2023/09/03 09:21:30;;;;;;;0.00;0.00;;;28.30;93.90;;;;;;5050754;28;20189;-60
2023/09/03 09:24:01;;;;;;;0.00;0.00;;;28.40;94.40;;;;;;5050790;28;20543;-62
2023/09/03 09:26:31;;;;;;;0.00;0.00;;;28.60;93.80;;;;;;5051276;28;20209;-60
2023/09/03 09:28:58;;;;;;;0.00;0.00;;;28.80;93.00;;;;;;5050408;28;20786;-61
2023/09/03 09:31:28;;;;;;;0.00;0.00;;;29.10;93.90;;;;;;5042950;28;20236;-60
2023/09/03 09:33:54;;;;;;;0.00;0.00;;;29.40;93.50;;;;;;5049814;28;20192;-59
2023/09/03 09:36:20;;;;;;;0.00;0.00;;;29.70;91.80;;;;;;5034563;28;20665;-59
2023/09/03 09:38:45;;;;;;;0.00;0.00;;;29.90;91.90;;;;;;5048616;28;20173;-60
2023/09/03 09:41:25;;;;;;;0.00;0.00;;;30.00;91.60;;;;;;5050383;28;20220;-60
2023/09/03 09:43:51;;;;;;;0.00;0.00;;;30.20;90.30;;;;;;5050641;28;20161;-60
2023/09/03 09:46:31;;;;;;;0.00;0.00;;;30.30;91.00;;;;;;5049072;28;20798;-59
2023/09/03 09:48:58;;;;;;;0.00;0.00;;;30.30;89.40;;;;;;5050697;28;20203;-62
2023/09/03 09:51:25;;;;;;;0.00;0.00;;;30.30;89.00;;;;;;5050605;28;20663;-62
2023/09/03 09:53:56;;;;;;;0.00;0.00;;;30.40;88.10;;;;;;5048009;28;20181;-62
2023/09/03 09:56:25;;;;;;;0.00;0.00;;;30.50;87.50;;;;;;5041412;28;20255;-63
2023/09/03 09:58:51;;;;;;;0.00;0.00;;;30.60;87.20;;;;;;5049653;28;20174;-59
2023/09/03 10:01:16;;;;;;;0.00;0.00;;;30.70;88.00;;;;;;5050390;28;20239;-60
2023/09/03 10:03:47;;;;;;;0.00;0.00;;;30.70;87.30;;;;;;5050392;28;20169;-60
2023/09/03 10:06:21;;;;;;;0.00;0.00;;;30.80;88.00;;;;;;5049793;28;20570;-60
2023/09/03 10:08:49;;;;;;;0.00;0.00;;;30.90;89.70;;;;;;5050646;28;20215;-62
2023/09/03 10:11:15;;;;;;;0.00;0.00;;;31.00;85.20;;;;;;5050085;28;20169;-62
2023/09/03 10:13:42;;;;;;;0.00;0.00;;;31.00;85.00;;;;;;5049925;28;20189;-62
2023/09/03 10:16:09;;;;;;;0.00;0.00;;;31.10;85.80;;;;;;5049938;28;20217;-62
2023/09/03 10:18:46;;;;;;;0.00;0.00;;;31.20;84.40;;;;;;5050165;28;20250;-62
2023/09/03 10:21:16;;;;;;;0.00;0.00;;;31.40;83.70;;;;;;5050460;28;20192;-62
2023/09/03 10:23:51;;;;;;;0.00;0.00;;;31.50;84.40;;;;;;5050368;28;20201;-63
2023/09/03 10:26:28;;;;;;;0.00;0.00;;;31.60;82.70;;;;;;5049564;28;20176;-62
2023/09/03 10:29:00;;;;;;;0.00;0.00;;;31.80;82.30;;;;;;5048982;28;20251;-62
2023/09/03 10:31:26;;;;;;;0.00;0.00;;;32.10;81.00;;;;;;5050616;28;20228;-62
2023/09/03 10:33:52;;;;;;;0.00;0.00;;;32.30;82.20;;;;;;5050869;28;20170;-62
2023/09/03 10:36:19;;;;;;;0.00;0.00;;;32.40;80.70;;;;;;5049405;28;20220;-62
2023/09/03 10:38:46;;;;;;;0.00;0.00;;;32.50;80.80;;;;;;5050733;28;20185;-62
2023/09/03 10:41:19;;;;;;;0.00;0.00;;;32.40;79.30;;;;;;5050756;28;20178;-62
2023/09/03 10:43:47;;;;;;;0.00;0.00;;;32.50;79.30;;;;;;5051851;28;20177;-62
2023/09/03 10:46:13;;;;;;;0.00;0.00;;;32.50;76.70;;;;;;5052596;28;20212;-62
2023/09/03 10:48:39;;;;;;;0.00;0.00;;;32.10;75.20;;;;;;5054906;28;20185;-61
2023/09/03 10:51:05;;;;;;;0.00;0.00;;;32.00;77.20;;;;;;5054808;28;20185;-62
2023/09/03 10:53:35;;;;;;;0.00;0.00;;;32.00;77.70;;;;;;5052158;28;20181;-62
2023/09/03 10:56:16;;;;;;;0.00;0.00;;;32.00;75.60;;;;;;5053771;28;20262;-61
2023/09/03 10:59:01;;;;;;;0.00;0.00;;;31.80;76.40;;;;;;5064129;28;20666;-62
2023/09/03 11:01:33;;;;;;;0.00;0.00;;;31.70;77.50;;;;;;5061607;28;20239;-62
2023/09/03 11:04:03;;;;;;;0.00;0.00;;;31.60;75.60;;;;;;5054316;28;20314;-62
2023/09/03 11:06:31;;;;;;;0.00;0.00;;;31.60;77.10;;;;;;5053117;28;20174;-62
2023/09/03 11:08:59;;;;;;;0.00;0.00;;;31.60;74.50;;;;;;5053616;28;20178;-60
2023/09/03 11:11:28;;;;;;;0.00;0.00;;;31.50;75.90;;;;;;5054237;28;20180;-60
2023/09/03 11:13:55;;;;;;;0.00;0.00;;;31.60;77.20;;;;;;5053234;28;20204;-60
2023/09/03 11:16:50;;;;;;;0.00;0.00;;;31.60;76.90;;;;;;5052884;28;20221;-60
2023/09/03 11:19:15;;;;;;;0.00;0.00;;;31.80;76.30;;;;;;5049261;28;20194;-60
2023/09/03 11:21:41;;;;;;;0.00;0.00;;;31.90;73.90;;;;;;5054314;28;20173;-60
2023/09/03 11:24:20;;;;;;;0.00;0.00;;;31.80;73.90;;;;;;5052684;28;20181;-60
2023/09/03 11:27:02;;;;;;;0.00;0.00;;;31.70;75.00;;;;;;5034441;28;20178;-60
2023/09/03 11:29:28;;;;;;;0.00;0.00;;;31.60;75.70;;;;;;5044105;28;20177;-60
2023/09/03 11:31:54;;;;;;;0.00;0.00;;;31.30;76.60;;;;;;5054022;28;20237;-59
2023/09/03 11:34:24;;;;;;;0.00;0.00;;;31.20;79.40;;;;;;5053804;28;20182;-60
2023/09/03 11:36:50;;;;;;;0.00;0.00;;;31.30;76.50;;;;;;5054056;28;20182;-61
2023/09/03 11:39:17;;;;;;;0.00;0.00;;;31.30;75.10;;;;;;5053633;28;20727;-61
2023/09/03 11:41:43;;;;;;;0.00;0.00;;;31.30;75.00;;;;;;5053479;28;20185;-62
2023/09/03 11:44:14;;;;;;;0.00;0.00;;;31.20;76.30;;;;;;5053426;28;20173;-62
2023/09/03 11:46:40;;;;;;;0.00;0.00;;;31.40;74.30;;;;;;5055323;28;20267;-62
2023/09/03 11:49:05;;;;;;;0.00;0.00;;;31.50;75.40;;;;;;5053304;28;20272;-62
2023/09/03 11:51:31;;;;;;;0.00;0.00;;;31.60;75.90;;;;;;5053294;28;20177;-60
2023/09/03 11:53:57;;;;;;;0.00;0.00;;;31.70;74.90;;;;;;5052479;28;20265;-60
2023/09/03 11:56:25;;;;;;;0.00;0.00;;;31.50;75.10;;;;;;5052605;28;20295;-60
2023/09/03 11:58:57;;;;;;;0.00;0.00;;;31.50;75.50;;;;;;5053219;28;20676;-60
2023/09/03 12:01:23;;;;;;;0.00;0.00;;;31.50;74.90;;;;;;5052875;28;20189;-60
2023/09/03 12:03:49;;;;;;;0.00;0.00;;;31.30;76.10;;;;;;5052969;28;20250;-60
2023/09/03 12:06:18;;;;;;;0.00;0.00;;;31.00;73.50;;;;;;5051613;28;20213;-60
2023/09/03 12:08:43;;;;;;;0.00;0.00;;;30.70;74.10;;;;;;5049586;28;20182;-60
2023/09/03 12:11:11;;;;;;;0.00;0.00;;;30.40;74.40;;;;;;5051990;28;20181;-60
2023/09/03 12:13:39;;;;;;;0.00;0.00;;;30.10;75.90;;;;;;5051800;28;20543;-61
2023/09/03 12:16:10;;;;;;;0.00;0.00;;;30.10;77.10;;;;;;5051804;28;20233;-60
2023/09/03 12:18:37;;;;;;;0.00;0.00;;;30.30;78.60;;;;;;5053228;28;20178;-60
2023/09/03 12:21:07;;;;;;;0.00;0.00;;;30.50;78.10;;;;;;5053064;28;20180;-60
2023/09/03 12:23:34;;;;;;;0.00;0.00;;;30.50;77.10;;;;;;5053141;28;20166;-60
2023/09/03 12:26:00;;;;;;;0.00;0.00;;;30.70;77.80;;;;;;5053032;28;20208;-60
2023/09/03 12:28:37;;;;;;;0.00;0.00;;;30.70;74.60;;;;;;5052899;28;20586;-60
2023/09/03 12:31:04;;;;;;;0.00;0.00;;;30.60;75.10;;;;;;5052779;28;20305;-60
2023/09/03 12:33:32;;;;;;;0.00;0.00;;;30.50;75.10;;;;;;5052436;28;20205;-60
2023/09/03 12:36:08;;;;;;;0.00;0.00;;;30.50;75.20;;;;;;5051599;28;20221;-60
2023/09/03 12:38:51;;;;;;;0.00;0.00;;;30.70;75.70;;;;;;5052618;28;20187;-60
2023/09/03 12:41:17;;;;;;;0.00;0.00;;;30.80;75.20;;;;;;5052490;28;20193;-61
2023/09/03 12:43:43;;;;;;;0.00;0.00;;;30.70;74.10;;;;;;5052148;28;20178;-60
2023/09/03 12:46:12;;;;;;;0.00;0.00;;;30.80;73.30;;;;;;5052563;28;20173;-61
2023/09/03 12:48:38;;;;;;;0.00;0.00;;;30.90;75.50;;;;;;5052200;28;20182;-61
2023/09/03 12:51:03;;;;;;;0.00;0.00;;;31.10;72.80;;;;;;5052654;28;20539;-62